Terminal Aerodrome Forecast
Issued by NWS

Home | Current Version | Previous Version | Text Only | Print | Product List | Glossary On
Versions: 1 2 3 4 5 6 7 8 9 10 11 12 13 14 15 16 17 18 19 20
882
FTUS43 KDVN 061147
TAFCID
TAF
KCID 061147Z 0612/0712 19003KT P6SM OVC018
     FM061900 23009KT P6SM SCT015 SCT150
     FM070300 22011KT P6SM BKN100=

USA.gov is the U.S. government's official web portal to all federal, state and local government web resources and services.